UDYZ/EVN METAR and TAF weather

Enter ICAO airport designator
Station Type Date Time Source
UDYZ METAR 2021/07/30 07:30 UTC NOAA

UDYZ 300730Z 17006KT 120V230 9999 FEW040 26/10 Q1013 R09/010070 NOSIG


Station Type Date Time Source
UDYZ Decoded METAR 2021/07/30 07:30 UTC NOAA

Station name not available
Jul 30, 2021 - 03:30 AM EDT / 2021.07.30 0730 UTC
Wind: from the S (170 degrees) at 7 MPH (6 KT) (direction variable):0
Visibility: greater than 7 mile(s):0
Sky conditions: mostly clear
Temperature: 78 F (26 C)
Dew Point: 50 F (10 C)
Relative Humidity: 36%
Pressure (altimeter): 29.91 in. Hg (1013 hPa)
ob: UDYZ 300730Z 17006KT 120V230 9999 FEW040 26/10 Q1013 R09/010070 NOSIG
cycle: 7

Station Type Date Time Source
UDYZ TAF 2021/07/30 06:00 UTC NOAA

TAF UDYZ 300502Z 3006/3106 19006KT 9999 FEW040
TEMPO 3008/3018 VRB16G26KT SCT040CB

Example: see airport list